createdAt,value
2018-04-24T00:00:18.922Z,14.37
2018-04-24T00:02:46.386Z,14.30
2018-04-24T00:05:13.815Z,14.47
2018-04-24T00:07:41.384Z,15.40
2018-04-24T00:10:09.539Z,15.90
2018-04-24T00:12:37.069Z,15.90
2018-04-24T00:15:04.663Z,16.43
2018-04-24T00:17:32.113Z,16.30
2018-04-24T00:20:00.445Z,14.50
2018-04-24T00:22:28.313Z,14.80
2018-04-24T00:24:55.746Z,15.30
2018-04-24T00:27:23.406Z,15.03
2018-04-24T00:29:50.872Z,14.67
2018-04-24T00:32:19.386Z,16.00
2018-04-24T00:34:47.672Z,15.53
2018-04-24T00:37:15.212Z,16.13
2018-04-24T00:39:43.411Z,16.80
2018-04-24T00:42:10.913Z,16.97
2018-04-24T00:44:38.459Z,17.67
2018-04-24T00:47:05.988Z,19.90
2018-04-24T00:49:33.505Z,20.90
2018-04-24T00:52:01.049Z,20.80
2018-04-24T00:54:28.869Z,19.97
2018-04-24T00:56:57.111Z,21.10
2018-04-24T00:59:24.619Z,21.17
2018-04-24T01:01:52.148Z,22.87
2018-04-24T01:04:20.418Z,22.80
2018-04-24T01:06:48.002Z,23.20
2018-04-24T01:09:15.429Z,22.77
2018-04-24T01:11:42.962Z,23.77
2018-04-24T01:14:10.545Z,22.43
2018-04-24T01:16:38.008Z,21.23
2018-04-24T01:19:05.511Z,20.40
2018-04-24T01:21:33.070Z,20.93
2018-04-24T01:24:00.558Z,21.43
2018-04-24T01:26:28.033Z,20.80
2018-04-24T01:28:55.962Z,19.90
2018-04-24T01:31:23.518Z,20.17
2018-04-24T01:33:51.033Z,21.93
2018-04-24T01:36:18.577Z,20.07
2018-04-24T01:38:46.908Z,20.80
2018-04-24T01:41:14.450Z,21.57
2018-04-24T01:43:41.938Z,22.53
2018-04-24T01:46:09.397Z,22.13
2018-04-24T01:48:37.474Z,21.47
2018-04-24T01:51:04.955Z,22.37
2018-04-24T01:53:32.462Z,22.23
2018-04-24T01:56:00.695Z,18.83
2018-04-24T01:58:28.216Z,17.50
2018-04-24T02:00:55.720Z,18.87
2018-04-24T02:03:23.198Z,16.60
2018-04-24T02:05:50.721Z,17.40
2018-04-24T02:08:18.187Z,15.73
2018-04-24T02:10:45.641Z,15.80
2018-04-24T02:13:13.167Z,16.57
2018-04-24T02:15:41.425Z,15.87
2018-04-24T02:18:08.913Z,16.50
2018-04-24T02:20:37.203Z,14.77
2018-04-24T02:23:04.657Z,14.40
2018-04-24T02:25:32.977Z,10.90
2018-04-24T02:28:00.456Z,10.80
2018-04-24T02:30:27.964Z,10.20
2018-04-24T02:32:56.255Z,9.87
2018-04-24T02:35:23.729Z,7.33
2018-04-24T02:37:51.258Z,7.13
2018-04-24T02:40:18.747Z,7.27
2018-04-24T02:42:47.015Z,7.37
2018-04-24T02:45:15.245Z,6.27
2018-04-24T02:47:42.723Z,5.80
2018-04-24T02:50:10.247Z,5.47
2018-04-24T02:52:37.737Z,5.60
2018-04-24T02:55:05.253Z,5.70
2018-04-24T02:57:32.720Z,4.90
2018-04-24T03:00:00.936Z,4.43
2018-04-24T03:02:28.443Z,4.93
2018-04-24T03:04:56.056Z,4.50
2018-04-24T03:07:24.275Z,5.07
2018-04-24T03:09:51.847Z,3.60
2018-04-24T03:12:19.240Z,4.03
2018-04-24T03:14:46.719Z,4.60
2018-04-24T03:17:14.267Z,3.90
2018-04-24T03:19:41.721Z,4.33
2018-04-24T03:22:09.989Z,5.17
2018-04-24T03:24:37.451Z,4.70
2018-04-24T03:27:05.239Z,4.03
2018-04-24T03:29:32.760Z,3.80
2018-04-24T03:32:00.273Z,4.67
2018-04-24T03:34:28.550Z,3.93
2018-04-24T03:36:56.117Z,4.63
2018-04-24T03:39:23.569Z,4.50
2018-04-24T03:41:51.196Z,4.40
2018-04-24T03:44:18.645Z,5.07
2018-04-24T03:46:46.229Z,4.77
2018-04-24T03:49:13.638Z,3.83
2018-04-24T03:51:41.150Z,4.87
2018-04-24T03:54:09.014Z,4.73
2018-04-24T03:56:36.528Z,4.50
2018-04-24T03:59:04.094Z,3.97
2018-04-24T04:01:31.641Z,4.53
2018-04-24T04:04:01.326Z,4.20
2018-04-24T04:06:28.792Z,4.60
2018-04-24T04:08:56.348Z,4.00
2018-04-24T04:11:23.847Z,4.27
2018-04-24T04:13:51.501Z,4.00
2018-04-24T04:16:18.941Z,3.60
2018-04-24T04:18:46.417Z,4.00
2018-04-24T04:21:13.916Z,4.13
2018-04-24T04:23:41.407Z,4.00
2018-04-24T04:26:08.863Z,4.37
2018-04-24T04:28:36.357Z,4.00
2018-04-24T04:31:05.361Z,4.60
2018-04-24T04:33:32.811Z,4.10
2018-04-24T04:36:00.374Z,4.00
2018-04-24T04:38:27.877Z,3.70
2018-04-24T04:40:55.323Z,3.60
2018-04-24T04:43:22.843Z,4.67
2018-04-24T04:45:50.362Z,4.70
2018-04-24T04:48:18.329Z,5.13
2018-04-24T04:50:46.568Z,5.00
2018-04-24T04:53:14.150Z,4.77
2018-04-24T04:55:42.383Z,5.17
2018-04-24T04:58:10.598Z,4.33
2018-04-24T05:00:38.192Z,4.30
2018-04-24T05:03:05.672Z,5.17
2018-04-24T05:05:33.187Z,4.87
2018-04-24T05:08:00.686Z,4.43
2018-04-24T05:10:28.995Z,4.47
2018-04-24T05:12:56.505Z,4.97
2018-04-24T05:15:24.087Z,4.67
2018-04-24T05:17:52.079Z,4.50
2018-04-24T05:20:20.401Z,4.77
2018-04-24T05:22:47.897Z,4.80
2018-04-24T05:25:15.475Z,5.23
2018-04-24T05:27:42.969Z,4.90
2018-04-24T05:30:10.575Z,5.00
2018-04-24T05:32:38.106Z,5.53
2018-04-24T05:35:05.820Z,5.23
2018-04-24T05:37:34.096Z,4.90
2018-04-24T05:40:01.695Z,5.10
2018-04-24T05:42:29.214Z,4.60
2018-04-24T05:44:56.710Z,4.90
2018-04-24T05:47:24.204Z,5.03
2018-04-24T05:49:51.776Z,5.50
2018-04-24T05:52:20.073Z,5.67
2018-04-24T05:54:48.303Z,6.40
2018-04-24T05:57:17.394Z,5.40
2018-04-24T05:59:44.867Z,6.37
2018-04-24T06:02:12.384Z,5.27
2018-04-24T06:04:39.851Z,4.83
2018-04-24T06:07:07.559Z,6.40
2018-04-24T06:09:35.156Z,5.73
2018-04-24T06:12:02.694Z,4.97
2018-04-24T06:14:31.313Z,4.93
2018-04-24T06:17:00.470Z,5.03
2018-04-24T06:19:28.711Z,5.30
2018-04-24T06:21:56.232Z,5.30
2018-04-24T06:24:23.753Z,5.10
2018-04-24T06:26:51.262Z,5.00
2018-04-24T06:29:18.758Z,5.90
2018-04-24T06:31:46.330Z,5.33
2018-04-24T06:34:14.448Z,5.20
2018-04-24T06:36:42.109Z,5.03
2018-04-24T06:39:09.588Z,5.20
2018-04-24T06:41:37.030Z,5.40
2018-04-24T06:44:04.532Z,4.40
2018-04-24T06:46:32.022Z,4.90
2018-04-24T06:48:59.528Z,5.40
2018-04-24T06:51:27.018Z,5.07
2018-04-24T06:53:54.614Z,5.20
2018-04-24T06:56:22.813Z,4.43
2018-04-24T06:58:50.531Z,5.23
2018-04-24T07:01:18.740Z,4.70
2018-04-24T07:03:46.237Z,5.30
2018-04-24T07:06:13.819Z,5.23
2018-04-24T07:08:41.326Z,4.80
2018-04-24T07:11:08.769Z,5.57
2018-04-24T07:13:36.299Z,4.80
2018-04-24T07:16:03.833Z,5.63
2018-04-24T07:18:31.313Z,5.30
2018-04-24T07:20:58.804Z,4.50
2018-04-24T07:23:26.512Z,5.43
2018-04-24T07:25:53.991Z,4.73
2018-04-24T07:28:21.543Z,4.83
2018-04-24T07:30:49.108Z,3.87
2018-04-24T07:33:16.597Z,4.43
2018-04-24T07:35:44.160Z,5.00
2018-04-24T07:38:11.729Z,4.97
2018-04-24T07:40:39.184Z,4.33
2018-04-24T07:43:06.641Z,4.80
2018-04-24T07:45:34.219Z,4.47
2018-04-24T07:48:01.973Z,4.67
2018-04-24T07:50:29.446Z,4.20
2018-04-24T07:52:56.935Z,5.70
2018-04-24T07:55:24.483Z,3.93
2018-04-24T07:57:52.040Z,4.80
2018-04-24T08:00:19.504Z,4.07
2018-04-24T08:02:47.025Z,4.43
2018-04-24T08:05:14.533Z,4.50
2018-04-24T08:07:42.507Z,4.20
2018-04-24T08:10:10.069Z,3.77
2018-04-24T08:12:37.768Z,4.70
2018-04-24T08:15:05.310Z,4.10
2018-04-24T08:17:32.770Z,4.53
2018-04-24T08:20:00.280Z,4.67
2018-04-24T08:22:27.798Z,4.07
2018-04-24T08:24:55.305Z,4.10
2018-04-24T08:27:22.764Z,4.50
2018-04-24T08:29:50.243Z,4.60
2018-04-24T08:32:17.910Z,4.80
2018-04-24T08:34:45.478Z,4.30
2018-04-24T08:37:13.298Z,4.30
2018-04-24T08:39:41.079Z,4.30
2018-04-24T08:42:08.537Z,4.27
2018-04-24T08:44:36.041Z,3.67
2018-04-24T08:47:03.666Z,4.60
2018-04-24T08:49:31.188Z,4.53
2018-04-24T08:51:58.656Z,4.73
2018-04-24T08:54:26.229Z,5.10
2018-04-24T08:56:53.776Z,4.27
2018-04-24T08:59:21.286Z,5.77
2018-04-24T09:01:49.614Z,4.70
2018-04-24T09:04:17.100Z,4.80
2018-04-24T09:06:44.626Z,4.83
2018-04-24T09:09:12.198Z,5.30
2018-04-24T09:11:39.715Z,5.30
2018-04-24T09:14:07.282Z,5.40
2018-04-24T09:16:34.768Z,5.47
2018-04-24T09:19:02.331Z,5.20
2018-04-24T09:21:29.889Z,5.47
2018-04-24T09:23:57.469Z,5.60
2018-04-24T09:26:25.072Z,5.93
2018-04-24T09:28:53.309Z,5.90
2018-04-24T09:31:20.857Z,6.17
2018-04-24T09:33:48.348Z,5.87
2018-04-24T09:36:15.791Z,5.93
2018-04-24T09:38:43.268Z,6.70
2018-04-24T09:41:10.763Z,6.23
2018-04-24T09:43:38.255Z,6.07
2018-04-24T09:46:06.528Z,6.30
2018-04-24T09:48:33.844Z,5.97
2018-04-24T09:51:01.332Z,6.50
2018-04-24T09:53:28.854Z,6.67
2018-04-24T09:55:56.337Z,6.07
2018-04-24T09:58:23.853Z,8.47
2018-04-24T10:00:52.090Z,6.60
2018-04-24T10:03:19.609Z,7.27
2018-04-24T10:05:47.865Z,7.50
2018-04-24T10:08:16.129Z,8.10
2018-04-24T10:10:44.101Z,7.10
2018-04-24T10:13:12.342Z,7.50
2018-04-24T10:15:39.842Z,7.67
2018-04-24T10:18:07.358Z,7.17
2018-04-24T10:20:36.190Z,7.70
2018-04-24T10:23:03.733Z,7.90
2018-04-24T10:25:31.265Z,7.90
2018-04-24T10:27:58.762Z,8.60
2018-04-24T10:30:27.363Z,8.70
2018-04-24T10:32:54.923Z,8.37
2018-04-24T10:35:22.454Z,8.80
2018-04-24T10:37:50.978Z,8.90
2018-04-24T10:40:18.412Z,8.63
2018-04-24T10:42:45.936Z,9.27
2018-04-24T10:45:13.583Z,9.23
2018-04-24T10:47:41.003Z,10.83
2018-04-24T10:50:08.593Z,9.47
2018-04-24T10:52:36.001Z,8.53
2018-04-24T10:55:03.584Z,9.00
2018-04-24T10:57:31.268Z,9.83
2018-04-24T11:00:01.245Z,10.17
2018-04-24T11:02:29.548Z,9.73
2018-04-24T11:04:57.030Z,9.57
2018-04-24T11:07:24.523Z,10.23
2018-04-24T11:09:52.158Z,10.77
2018-04-24T11:12:20.392Z,11.67
2018-04-24T11:14:47.981Z,12.07
2018-04-24T11:17:16.051Z,12.27
2018-04-24T11:19:43.536Z,12.73
2018-04-24T11:22:11.073Z,13.77
2018-04-24T11:24:38.623Z,13.67
2018-04-24T11:27:06.151Z,15.20
2018-04-24T11:29:33.759Z,15.07
2018-04-24T11:32:01.323Z,15.30
2018-04-24T11:34:28.921Z,16.03
2018-04-24T11:36:56.347Z,16.63
2018-04-24T11:39:23.897Z,16.17
2018-04-24T11:41:51.397Z,14.90
2018-04-24T11:44:19.679Z,15.90
2018-04-24T11:46:48.373Z,15.90
2018-04-24T11:49:16.641Z,16.00
2018-04-24T11:51:44.138Z,15.63
2018-04-24T11:54:11.702Z,15.07
2018-04-24T11:56:39.206Z,15.07
2018-04-24T11:59:06.716Z,15.53
2018-04-24T12:01:34.252Z,16.77
2018-04-24T12:04:03.293Z,16.10
2018-04-24T12:06:31.496Z,15.33
2018-04-24T12:08:59.043Z,15.03
2018-04-24T12:11:26.666Z,15.83
2018-04-24T12:13:55.044Z,13.50
2018-04-24T12:16:22.512Z,14.73
2018-04-24T12:18:50.004Z,15.93
2018-04-24T12:21:18.341Z,16.17
2018-04-24T12:23:45.885Z,17.20
2018-04-24T12:26:13.467Z,17.23
2018-04-24T12:28:40.947Z,16.50
2018-04-24T12:31:08.771Z,16.90
2018-04-24T12:33:36.235Z,17.10
2018-04-24T12:36:03.783Z,17.10
2018-04-24T12:38:31.649Z,18.50
2018-04-24T12:40:59.172Z,17.13
2018-04-24T12:43:26.724Z,15.47
2018-04-24T12:45:54.242Z,15.00
2018-04-24T12:48:21.770Z,15.00
2018-04-24T12:50:50.931Z,14.27
2018-04-24T12:53:18.492Z,16.23
2018-04-24T12:55:45.928Z,15.97
2018-04-24T12:58:13.515Z,16.33
2018-04-24T13:00:41.048Z,15.90
2018-04-24T13:03:08.578Z,15.23
2018-04-24T13:05:36.093Z,13.90
2018-04-24T13:08:03.569Z,12.63
2018-04-24T13:10:31.152Z,11.43
2018-04-24T13:12:58.690Z,12.93
2018-04-24T13:15:26.291Z,12.77
2018-04-24T13:17:53.798Z,13.23
2018-04-24T13:20:22.137Z,12.77
2018-04-24T13:22:49.579Z,12.80
2018-04-24T13:25:17.159Z,12.30
2018-04-24T13:27:45.510Z,15.53
2018-04-24T13:30:12.966Z,16.87
2018-04-24T13:32:41.906Z,17.47
2018-04-24T13:35:09.484Z,16.30
2018-04-24T13:37:37.820Z,17.60
2018-04-24T13:40:05.389Z,18.27
2018-04-24T13:42:33.682Z,15.07
2018-04-24T13:45:01.067Z,16.07
2018-04-24T13:47:28.682Z,14.70
2018-04-24T13:49:56.950Z,14.17
2018-04-24T13:52:24.500Z,13.20
2018-04-24T13:54:52.880Z,14.17
2018-04-24T13:57:20.398Z,13.87
2018-04-24T13:59:47.835Z,14.70
2018-04-24T14:02:15.348Z,13.53
2018-04-24T14:04:42.907Z,12.50
2018-04-24T14:07:10.797Z,13.13
2018-04-24T14:09:38.262Z,12.80
2018-04-24T14:12:06.660Z,13.03
2018-04-24T14:14:34.162Z,11.53
2018-04-24T14:17:01.673Z,11.50
2018-04-24T14:19:29.956Z,12.10
2018-04-24T14:21:57.468Z,11.97
2018-04-24T14:24:25.076Z,12.30
2018-04-24T14:26:52.658Z,14.03
2018-04-24T14:29:20.666Z,14.47
2018-04-24T14:31:48.129Z,17.07
2018-04-24T14:34:15.722Z,22.00
2018-04-24T14:36:43.248Z,20.63
2018-04-24T14:39:10.728Z,18.00
2018-04-24T14:41:38.361Z,19.07
2018-04-24T14:44:05.810Z,20.63
2018-04-24T14:46:34.086Z,25.03
2018-04-24T14:49:01.593Z,23.40
2018-04-24T14:51:29.143Z,24.37
2018-04-24T14:53:56.673Z,25.67
2018-04-24T14:56:24.131Z,26.03
2018-04-24T14:58:52.349Z,29.20
2018-04-24T15:01:20.589Z,28.70
2018-04-24T15:03:48.920Z,27.40
2018-04-24T15:06:16.366Z,27.97
2018-04-24T15:08:43.939Z,28.93
2018-04-24T15:11:11.478Z,27.50
2018-04-24T15:13:39.775Z,27.73
2018-04-24T15:16:07.301Z,26.07
2018-04-24T15:18:35.669Z,27.93
2018-04-24T15:21:03.078Z,27.40
2018-04-24T15:23:30.617Z,29.97
2018-04-24T15:25:58.130Z,26.80
2018-04-24T15:28:25.645Z,23.10
2018-04-24T15:30:53.181Z,22.53
2018-04-24T15:33:21.348Z,20.27
2018-04-24T15:35:48.921Z,17.60
2018-04-24T15:38:17.917Z,16.17
2018-04-24T15:40:45.422Z,16.50
2018-04-24T15:43:12.980Z,16.37
2018-04-24T15:45:40.490Z,17.30
2018-04-24T15:48:09.575Z,16.70
2018-04-24T15:50:37.092Z,18.70
2018-04-24T15:53:04.618Z,18.70
2018-04-24T15:55:32.122Z,16.77
2018-04-24T15:57:59.605Z,16.23
2018-04-24T16:00:27.204Z,17.57
2018-04-24T16:02:55.555Z,17.43
2018-04-24T16:05:23.830Z,18.43
2018-04-24T16:07:53.025Z,19.07
2018-04-24T16:10:20.539Z,17.27
2018-04-24T16:12:48.155Z,16.90
2018-04-24T16:15:15.670Z,18.10
2018-04-24T16:17:43.160Z,17.60
2018-04-24T16:20:10.708Z,17.50
2018-04-24T16:22:38.233Z,19.10
2018-04-24T16:25:06.136Z,18.10
2018-04-24T16:27:33.709Z,18.50
2018-04-24T16:30:01.774Z,17.93
2018-04-24T16:32:29.306Z,18.90
2018-04-24T16:34:57.545Z,19.90
2018-04-24T16:37:25.384Z,18.50
2018-04-24T16:39:52.960Z,20.03
2018-04-24T16:42:20.428Z,19.27
2018-04-24T16:44:47.915Z,20.43
2018-04-24T16:47:15.393Z,20.80
2018-04-24T16:49:43.021Z,21.87
2018-04-24T16:52:10.868Z,21.60
2018-04-24T16:54:39.867Z,20.57
2018-04-24T16:57:08.207Z,21.40
2018-04-24T16:59:35.653Z,22.00
2018-04-24T17:02:03.795Z,24.33
2018-04-24T17:04:32.026Z,22.87
2018-04-24T17:07:00.354Z,22.90
2018-04-24T17:09:29.142Z,21.57
2018-04-24T17:11:56.686Z,22.37
2018-04-24T17:14:24.432Z,24.77
2018-04-24T17:16:52.749Z,25.10
2018-04-24T17:19:20.259Z,23.50
2018-04-24T17:21:47.824Z,22.33
2018-04-24T17:24:16.098Z,22.73
2018-04-24T17:26:43.632Z,23.70
2018-04-24T17:29:11.102Z,24.07
2018-04-24T17:31:38.671Z,22.77
2018-04-24T17:34:06.173Z,22.20
2018-04-24T17:36:34.484Z,21.97
2018-04-24T17:39:02.969Z,22.27
2018-04-24T17:41:30.439Z,23.10
2018-04-24T17:43:57.970Z,21.67
2018-04-24T17:46:26.292Z,21.13
2018-04-24T17:48:54.666Z,21.50
2018-04-24T17:51:22.886Z,20.13
2018-04-24T17:53:50.375Z,21.80
2018-04-24T17:56:18.649Z,20.77
2018-04-24T17:58:46.977Z,21.17
2018-04-24T18:01:14.494Z,20.30
2018-04-24T18:03:41.967Z,21.70
2018-04-24T18:06:10.269Z,22.60
2018-04-24T18:08:37.795Z,20.17
2018-04-24T18:11:05.341Z,19.77
2018-04-24T18:13:32.815Z,19.67
2018-04-24T18:16:00.380Z,19.10
2018-04-24T18:18:27.867Z,18.80
2018-04-24T18:20:56.273Z,19.20
2018-04-24T18:23:23.746Z,18.47
2018-04-24T18:25:51.226Z,18.73
2018-04-24T18:28:18.739Z,18.83
2018-04-24T18:30:46.249Z,17.33
2018-04-24T18:33:13.773Z,18.83
2018-04-24T18:35:41.330Z,17.07
2018-04-24T18:38:08.899Z,17.80
2018-04-24T18:40:37.341Z,17.63
2018-04-24T18:43:04.942Z,17.63
2018-04-24T18:45:33.197Z,17.70
2018-04-24T18:48:01.593Z,19.50
2018-04-24T18:50:29.066Z,17.87
2018-04-24T18:52:57.954Z,17.50
2018-04-24T18:55:25.397Z,17.10
2018-04-24T18:57:52.891Z,17.87
2018-04-24T19:00:20.428Z,18.20
2018-04-24T19:02:47.915Z,18.40
2018-04-24T19:05:16.166Z,17.67
2018-04-24T19:07:43.767Z,18.93
2018-04-24T19:10:11.453Z,18.07
2018-04-24T19:12:38.974Z,19.47
2018-04-24T19:15:06.523Z,17.70
2018-04-24T19:17:34.060Z,20.57
2018-04-24T19:20:01.659Z,18.93
2018-04-24T19:22:29.259Z,19.90
2018-04-24T19:24:56.787Z,21.10
2018-04-24T19:27:24.524Z,20.40
2018-04-24T19:29:52.298Z,21.83
2018-04-24T19:32:19.853Z,20.10
2018-04-24T19:34:47.387Z,22.40
2018-04-24T19:37:14.863Z,21.33
2018-04-24T19:39:42.366Z,20.80
2018-04-24T19:42:10.270Z,19.50
2018-04-24T19:44:37.728Z,22.83
2018-04-24T19:47:05.206Z,21.20
2018-04-24T19:49:33.527Z,20.87
2018-04-24T19:52:01.831Z,21.47
2018-04-24T19:54:29.329Z,21.47
2018-04-24T19:56:57.644Z,19.97
2018-04-24T19:59:25.921Z,20.63
2018-04-24T20:01:53.495Z,20.07
2018-04-24T20:04:21.881Z,20.17
2018-04-24T20:06:49.313Z,21.97
2018-04-24T20:09:16.874Z,19.67
2018-04-24T20:11:45.160Z,19.00
2018-04-24T20:14:13.576Z,18.97
2018-04-24T20:16:41.053Z,18.70
2018-04-24T20:19:08.603Z,19.50
2018-04-24T20:21:36.088Z,20.33
2018-04-24T20:24:04.554Z,20.40
2018-04-24T20:26:32.118Z,20.70
2018-04-24T20:28:59.618Z,21.00
2018-04-24T20:31:27.137Z,20.40
2018-04-24T20:33:54.691Z,21.00
2018-04-24T20:36:22.119Z,21.40
2018-04-24T20:38:50.382Z,20.13
2018-04-24T20:41:17.945Z,20.80
2018-04-24T20:43:45.417Z,20.53
2018-04-24T20:46:13.057Z,20.87
2018-04-24T20:48:40.776Z,20.90
2018-04-24T20:51:08.332Z,20.40
2018-04-24T20:53:36.098Z,21.80
2018-04-24T20:56:04.355Z,21.60
2018-04-24T20:58:31.856Z,19.30
2018-04-24T21:00:59.450Z,20.30
2018-04-24T21:03:26.930Z,20.67
2018-04-24T21:05:54.378Z,20.17
2018-04-24T21:08:21.847Z,20.17
2018-04-24T21:10:49.408Z,21.20
2018-04-24T21:13:17.049Z,21.20
2018-04-24T21:15:44.535Z,21.37
2018-04-24T21:18:12.098Z,20.00
2018-04-24T21:20:39.594Z,21.13
2018-04-24T21:23:07.116Z,21.77
2018-04-24T21:25:34.592Z,22.13
2018-04-24T21:28:02.125Z,21.03
2018-04-24T21:30:29.616Z,20.47
2018-04-24T21:32:57.456Z,20.40
2018-04-24T21:35:25.066Z,19.20
2018-04-24T21:37:52.520Z,19.80
2018-04-24T21:40:20.167Z,18.90
2018-04-24T21:42:47.590Z,21.63
2018-04-24T21:45:15.111Z,20.13
2018-04-24T21:47:43.274Z,20.70
2018-04-24T21:50:10.810Z,21.43
2018-04-24T21:52:38.329Z,19.57
2018-04-24T21:55:05.796Z,20.70
2018-04-24T21:57:33.329Z,19.20
2018-04-24T22:00:00.898Z,21.67
2018-04-24T22:02:28.562Z,20.10
2018-04-24T22:04:56.152Z,21.30
2018-04-24T22:07:23.622Z,22.03
2018-04-24T22:09:51.135Z,22.70
2018-04-24T22:12:18.687Z,21.07
2018-04-24T22:14:46.924Z,20.77
2018-04-24T22:17:14.452Z,21.40
2018-04-24T22:19:42.039Z,21.37
2018-04-24T22:22:10.291Z,22.83
2018-04-24T22:24:37.853Z,19.63
2018-04-24T22:27:05.396Z,20.27
2018-04-24T22:29:32.829Z,20.17
2018-04-24T22:32:00.351Z,19.83
2018-04-24T22:34:27.904Z,19.77
2018-04-24T22:36:55.445Z,19.77
2018-04-24T22:39:23.788Z,18.70
2018-04-24T22:41:51.232Z,19.67
2018-04-24T22:44:18.749Z,18.80
2018-04-24T22:46:46.349Z,18.90
2018-04-24T22:49:13.911Z,20.73
2018-04-24T22:51:41.682Z,20.43
2018-04-24T22:54:09.142Z,20.00
2018-04-24T22:56:36.788Z,18.90
2018-04-24T22:59:04.284Z,19.67
2018-04-24T23:01:31.815Z,19.77
2018-04-24T23:03:59.316Z,20.07
2018-04-24T23:06:27.624Z,20.77
2018-04-24T23:08:55.167Z,21.90
2018-04-24T23:11:22.718Z,21.27
2018-04-24T23:13:50.229Z,20.57
2018-04-24T23:16:17.830Z,20.93
2018-04-24T23:18:45.621Z,20.90
2018-04-24T23:21:18.401Z,20.67
2018-04-24T23:23:46.578Z,21.50
2018-04-24T23:26:14.135Z,22.40
2018-04-24T23:28:42.355Z,22.40
2018-04-24T23:31:10.027Z,22.50
2018-04-24T23:33:37.481Z,21.60
2018-04-24T23:36:04.958Z,23.20
2018-04-24T23:38:32.591Z,23.53
2018-04-24T23:41:00.134Z,23.50
2018-04-24T23:43:27.702Z,21.87
2018-04-24T23:45:55.233Z,24.03
2018-04-24T23:48:22.720Z,22.70
2018-04-24T23:50:50.314Z,22.40
2018-04-24T23:53:18.671Z,22.23
2018-04-24T23:55:46.123Z,24.57
2018-04-24T23:58:13.694Z,21.10
